Time;durP1;ratioP1;P1;durP2;ratioP2;P2;SDS_P1;SDS_P2;PMS_P1;PMS_P2;Temp;Humidity;BMP_temperature;BMP_pressure;BME280_temperature;BME280_humidity;BME280_pressure;Samples;Min_cycle;Max_cycle;Signal;HPM_P1;HPM_P2
2023/10/05 00:03:46;;;;;;;2.70;2.40;;;;;;;23.00;67.73;98441.91;4934757;29;20442;-26
2023/10/05 00:06:14;;;;;;;2.70;2.40;;;;;;;23.00;67.81;98428.19;4935437;29;20311;-26
2023/10/05 00:08:45;;;;;;;3.27;2.70;;;;;;;23.00;67.84;98423.06;4934714;29;20236;-26
2023/10/05 00:11:22;;;;;;;2.50;2.03;;;;;;;23.00;67.79;98430.75;4936194;29;20314;-27
2023/10/05 00:13:52;;;;;;;2.83;2.30;;;;;;;23.00;67.81;98439.34;4936070;29;20284;-26
2023/10/05 00:16:22;;;;;;;2.73;2.40;;;;;;;23.00;67.78;98441.91;4944873;28;20193;-27
2023/10/05 00:18:52;;;;;;;3.00;2.27;;;;;;;22.99;67.97;98442.72;4936688;29;20288;-26
2023/10/05 00:21:19;;;;;;;3.73;2.57;;;;;;;22.99;67.96;98439.28;4946440;29;20222;-26
2023/10/05 00:23:52;;;;;;;3.33;2.27;;;;;;;22.99;67.81;98434.16;4930422;29;20588;-26
2023/10/05 00:26:20;;;;;;;2.43;2.10;;;;;;;22.99;67.79;98427.34;4946726;29;20208;-26
2023/10/05 00:29:00;;;;;;;2.40;2.20;;;;;;;22.98;67.89;98415.31;4938366;29;20578;-26
2023/10/05 00:31:27;;;;;;;3.33;2.47;;;;;;;22.99;67.73;98416.19;4939134;29;20695;-26
2023/10/05 00:33:56;;;;;;;2.97;2.40;;;;;;;23.00;67.82;98415.38;4937173;28;20268;-26
2023/10/05 00:36:31;;;;;;;3.40;2.43;;;;;;;22.97;67.89;98418.72;4946491;29;20742;-26
2023/10/05 00:39:01;;;;;;;3.07;2.43;;;;;;;22.95;68.13;98409.22;4937735;28;20200;-27
2023/10/05 00:41:28;;;;;;;3.10;2.30;;;;;;;23.00;67.85;98421.38;4934465;29;20216;-27
2023/10/05 00:43:55;;;;;;;4.20;2.37;;;;;;;23.00;67.78;98423.94;4940086;29;20655;-26
2023/10/05 00:46:23;;;;;;;2.63;2.43;;;;;;;23.00;67.72;98423.94;4936109;29;20212;-29
2023/10/05 00:49:04;;;;;;;3.47;2.50;;;;;;;23.00;67.74;98416.25;4939966;29;20203;-29
2023/10/05 00:51:33;;;;;;;2.27;2.00;;;;;;;22.98;67.84;98412.75;4935143;29;20221;-26
2023/10/05 00:54:10;;;;;;;9.10;2.27;;;;;;;22.99;67.68;98404.28;4933533;29;20267;-27
2023/10/05 00:56:41;;;;;;;2.20;2.00;;;;;;;22.92;67.57;98388.59;4933094;29;20287;-29
2023/10/05 00:59:11;;;;;;;2.50;2.20;;;;;;;22.98;67.76;98391.38;4942719;29;20235;-26
2023/10/05 01:02:03;;;;;;;3.07;2.10;;;;;;;23.00;67.76;98392.31;4928314;29;20213;-26
2023/10/05 01:07:18;;;;;;;2.00;1.80;;;;;;;22.99;67.87;98394.00;4935390;29;20209;-26
2023/10/05 01:12:37;;;;;;;2.63;2.17;;;;;;;22.99;67.77;98398.25;4942530;29;20636;-26
2023/10/05 01:15:06;;;;;;;2.80;2.10;;;;;;;23.00;67.79;98407.69;4939044;29;20201;-28
2023/10/05 01:17:35;;;;;;;2.40;1.90;;;;;;;22.99;67.83;98395.69;4934331;29;20583;-26
2023/10/05 01:22:44;;;;;;;2.50;1.97;;;;;;;23.00;67.95;98397.44;4928569;29;20224;-26
2023/10/05 01:25:13;;;;;;;2.47;2.20;;;;;;;22.99;67.84;98401.69;4941399;29;20211;-31
2023/10/05 01:27:43;;;;;;;2.47;2.00;;;;;;;22.99;67.79;98395.69;4928459;29;20233;-26
2023/10/05 01:30:14;;;;;;;2.53;2.33;;;;;;;22.99;67.73;98396.56;4933931;29;20209;-26
2023/10/05 01:32:41;;;;;;;2.87;2.20;;;;;;;22.99;67.67;98396.56;4928619;29;20224;-37
2023/10/05 01:35:08;;;;;;;2.77;2.20;;;;;;;22.99;67.72;98406.84;4935943;29;20260;-26
2023/10/05 01:37:43;;;;;;;2.43;2.10;;;;;;;22.98;67.79;98402.50;4934605;29;20616;-26
2023/10/05 01:42:47;;;;;;;2.80;2.27;;;;;;;22.98;67.73;98415.31;4934333;29;20216;-29
2023/10/05 01:45:22;;;;;;;2.10;1.90;;;;;;;22.97;67.83;98408.44;4932970;29;20205;-29
2023/10/05 01:47:49;;;;;;;2.17;1.90;;;;;;;22.97;67.89;98411.00;4934827;29;20205;-26
2023/10/05 01:50:19;;;;;;;2.50;2.23;;;;;;;22.98;67.82;98407.63;4936010;29;20611;-26
2023/10/05 01:52:56;;;;;;;2.83;2.40;;;;;;;22.99;67.90;98403.38;4936169;29;20287;-26
2023/10/05 01:55:25;;;;;;;2.40;1.93;;;;;;;22.99;67.70;98409.41;4937355;29;20239;-26
2023/10/05 01:57:53;;;;;;;3.03;2.20;;;;;;;22.99;67.77;98403.38;4940905;29;20197;-26
2023/10/05 02:00:22;;;;;;;2.53;2.10;;;;;;;22.99;67.80;98398.25;4945927;28;20211;-26
2023/10/05 02:02:49;;;;;;;2.30;2.10;;;;;;;22.99;67.78;98399.13;4934036;29;20248;-26
2023/10/05 02:05:19;;;;;;;2.40;2.00;;;;;;;22.99;67.82;98400.81;4944443;28;20208;-29
2023/10/05 02:07:50;;;;;;;2.13;1.93;;;;;;;23.00;67.71;98407.69;4934504;29;20206;-29
2023/10/05 02:10:19;;;;;;;2.47;1.93;;;;;;;22.99;67.81;98390.56;4934264;29;20209;-26
2023/10/05 02:12:49;;;;;;;2.47;2.13;;;;;;;22.96;67.76;98378.50;4933856;28;20248;-26
2023/10/05 02:15:16;;;;;;;2.60;2.23;;;;;;;22.98;67.96;98379.41;4932650;29;20309;-26
2023/10/05 02:17:46;;;;;;;2.30;1.90;;;;;;;22.97;67.74;98372.56;4934765;28;20292;-27
2023/10/05 02:20:38;;;;;;;2.30;2.10;;;;;;;22.98;67.76;98376.00;4934469;29;20215;-27
2023/10/05 02:24:10;;;;;;;2.47;2.10;;;;;;;22.98;67.85;98378.56;4938026;29;20228;-26
2023/10/05 02:26:07;;;;;;;2.80;1.90;;;;;;;22.97;67.92;98377.69;4925849;29;20212;-26
2023/10/05 02:28:35;;;;;;;2.20;2.00;;;;;;;22.97;67.87;98381.94;4938797;29;20209;-26
2023/10/05 02:31:02;;;;;;;2.23;2.03;;;;;;;22.96;67.94;98375.06;4941748;28;20212;-26
2023/10/05 02:33:31;;;;;;;2.80;1.80;;;;;;;22.97;67.88;98381.94;4939625;28;20288;-27
2023/10/05 02:38:48;;;;;;;2.10;1.90;;;;;;;22.97;67.99;98398.19;4933428;29;20205;-32
2023/10/05 02:41:17;;;;;;;3.03;2.10;;;;;;;22.97;67.98;98389.63;4945096;28;20246;-26
2023/10/05 02:43:52;;;;;;;3.07;2.10;;;;;;;22.98;67.89;98383.69;4942324;28;20201;-26
2023/10/05 02:46:20;;;;;;;2.37;1.83;;;;;;;22.97;67.98;98384.50;4939186;28;20208;-26
2023/10/05 02:48:47;;;;;;;2.40;2.20;;;;;;;22.98;67.83;98396.53;4937080;29;20687;-28
2023/10/05 02:51:16;;;;;;;2.00;1.80;;;;;;;22.98;68.05;98388.81;4935754;29;20292;-26
2023/10/05 02:53:44;;;;;;;2.07;1.87;;;;;;;22.97;67.61;98385.38;4938063;29;20212;-26
2023/10/05 02:56:22;;;;;;;2.10;1.90;;;;;;;22.97;67.80;98372.56;4937240;29;20252;-28
2023/10/05 02:58:54;;;;;;;2.00;1.80;;;;;;;22.97;67.92;98370.00;4943299;28;20216;-26
2023/10/05 03:01:24;;;;;;;1.97;1.77;;;;;;;22.97;67.79;98369.13;4940185;28;20224;-36
2023/10/05 03:03:51;;;;;;;2.60;2.00;;;;;;;22.96;68.12;98370.81;4938409;29;20223;-26
2023/10/05 03:06:20;;;;;;;2.77;2.10;;;;;;;22.97;67.84;98356.28;4936243;29;20205;-28
2023/10/05 03:08:49;;;;;;;2.17;1.93;;;;;;;22.97;67.78;98358.84;4930729;29;20229;-26
2023/10/05 03:11:18;;;;;;;2.13;1.90;;;;;;;22.97;67.89;98357.19;4935695;29;20283;-28
2023/10/05 03:13:45;;;;;;;2.47;1.80;;;;;;;22.96;67.99;98365.69;4938833;29;20203;-26
2023/10/05 03:16:12;;;;;;;2.37;2.17;;;;;;;22.98;67.93;98373.44;4935498;29;20204;-30
2023/10/05 03:18:43;;;;;;;2.13;1.93;;;;;;;22.96;67.83;98368.25;4934935;28;20208;-27
2023/10/05 03:21:13;;;;;;;1.90;1.70;;;;;;;22.98;67.98;98376.00;4933762;29;20675;-28
2023/10/05 03:23:41;;;;;;;2.40;1.70;;;;;;;22.98;67.82;98376.00;4940899;28;20204;-26
2023/10/05 03:26:10;;;;;;;1.87;1.77;;;;;;;22.98;67.76;98376.00;4938372;29;20567;-26
2023/10/05 03:28:37;;;;;;;2.20;2.00;;;;;;;22.98;67.62;98371.72;4944756;29;20731;-26
2023/10/05 03:31:24;;;;;;;1.80;1.70;;;;;;;22.99;67.60;98372.63;4937131;29;20221;-26
2023/10/05 03:33:52;;;;;;;2.07;1.87;;;;;;;22.99;67.59;98367.50;4938555;29;20201;-26
2023/10/05 03:36:19;;;;;;;2.00;1.80;;;;;;;22.99;67.49;98365.81;4927231;29;20209;-30
2023/10/05 03:38:54;;;;;;;2.00;1.80;;;;;;;22.98;67.59;98369.16;4927843;29;20696;-30
2023/10/05 03:41:28;;;;;;;1.70;1.60;;;;;;;22.98;67.79;98369.16;4928571;29;20295;-29
2023/10/05 03:44:02;;;;;;;1.83;1.70;;;;;;;22.86;67.87;98343.09;4929307;29;20581;-29
2023/10/05 03:46:29;;;;;;;2.07;1.90;;;;;;;22.99;67.76;98359.78;4941600;29;20287;-28
2023/10/05 03:49:02;;;;;;;1.90;1.80;;;;;;;22.99;67.97;98362.34;4937399;29;20211;-30
2023/10/05 03:51:29;;;;;;;2.57;2.10;;;;;;;22.99;67.76;98363.25;4937313;28;20233;-26
2023/10/05 03:53:56;;;;;;;1.87;1.70;;;;;;;22.99;67.76;98354.66;4939719;29;20206;-28
2023/10/05 03:56:25;;;;;;;2.37;1.90;;;;;;;22.98;67.72;98356.34;4934469;29;20256;-29
2023/10/05 03:58:55;;;;;;;2.53;2.03;;;;;;;22.92;67.63;98348.44;4931306;29;20660;-29
2023/10/05 04:01:24;;;;;;;2.07;1.87;;;;;;;22.93;67.65;98345.06;4934709;29;20316;-26
2023/10/05 04:03:51;;;;;;;1.93;1.70;;;;;;;22.93;67.82;98346.75;4935550;29;20221;-26
2023/10/05 04:06:23;;;;;;;1.97;1.60;;;;;;;23.00;67.62;98351.28;4933629;29;20209;-30
2023/10/05 04:08:54;;;;;;;2.20;1.87;;;;;;;23.00;67.49;98354.72;4943058;29;20211;-28
2023/10/05 04:11:21;;;;;;;1.70;1.60;;;;;;;22.79;67.35;98324.84;4931899;29;20719;-27
2023/10/05 04:13:50;;;;;;;2.20;2.00;;;;;;;23.02;67.37;98368.47;4939922;29;20228;-26
2023/10/05 04:16:28;;;;;;;2.20;2.00;;;;;;;23.01;67.49;98369.28;4937632;29;20655;-26
2023/10/05 04:18:55;;;;;;;1.60;1.50;;;;;;;23.01;67.52;98376.13;4940233;29;20204;-26
2023/10/05 04:21:24;;;;;;;1.87;1.77;;;;;;;23.01;67.54;98374.41;4932292;28;20225;-27
2023/10/05 04:23:56;;;;;;;2.23;2.03;;;;;;;23.03;65.92;98379.59;4942598;28;20257;-31
2023/10/05 04:26:26;;;;;;;1.87;1.73;;;;;;;23.01;66.99;98376.13;4935209;29;20610;-26
2023/10/05 04:28:54;;;;;;;2.43;1.93;;;;;;;23.02;66.84;98381.31;4931062;29;20579;-26
2023/10/05 04:31:25;;;;;;;2.07;1.80;;;;;;;23.04;67.01;98383.94;4943848;28;20228;-26
2023/10/05 04:33:53;;;;;;;1.80;1.70;;;;;;;23.03;67.02;98371.91;4933571;29;20221;-27
2023/10/05 04:36:22;;;;;;;2.03;1.83;;;;;;;23.04;67.10;98368.53;4955625;28;20674;-29
2023/10/05 04:38:54;;;;;;;1.83;1.73;;;;;;;23.04;66.79;98371.09;4938485;29;20698;-27
2023/10/05 04:41:28;;;;;;;2.97;2.07;;;;;;;23.04;66.06;98368.53;4934759;28;20263;-27
2023/10/05 04:43:56;;;;;;;1.77;1.67;;;;;;;23.03;65.21;98365.09;4926698;29;20287;-28
2023/10/05 04:46:23;;;;;;;2.20;1.90;;;;;;;23.04;64.22;98366.81;4937014;28;20216;-26
2023/10/05 04:49:02;;;;;;;1.80;1.70;;;;;;;23.03;63.86;98369.34;4934410;29;20292;-28
2023/10/05 04:51:32;;;;;;;2.80;1.77;;;;;;;23.03;63.46;98367.66;4942278;28;20318;-26
2023/10/05 04:53:59;;;;;;;2.30;2.10;;;;;;;23.02;62.46;98373.63;4942437;28;20231;-26
2023/10/05 04:56:40;;;;;;;2.20;2.00;;;;;;;23.02;62.77;98377.84;4936678;28;20680;-26
2023/10/05 05:04:52;;;;;;;3.43;2.20;;;;;;;22.98;54.04;98369.16;4913469;29;20202;-27
2023/10/05 05:07:21;;;;;;;5.13;2.30;;;;;;;22.96;55.09;98367.38;4934473;29;20229;-28
2023/10/05 05:09:50;;;;;;;2.37;2.10;;;;;;;22.96;56.08;98370.81;4930624;29;20200;-28
2023/10/05 05:12:17;;;;;;;2.20;2.00;;;;;;;22.96;56.94;98370.81;4938323;29;20225;-29
2023/10/05 05:14:44;;;;;;;2.47;2.27;;;;;;;22.95;57.72;98369.06;4937905;29;20212;-30
2023/10/05 05:17:15;;;;;;;2.30;2.10;;;;;;;22.96;57.98;98375.06;4943665;28;20683;-31
2023/10/05 05:19:42;;;;;;;2.30;2.10;;;;;;;22.96;58.05;98375.06;4935447;29;20271;-26
2023/10/05 05:22:09;;;;;;;3.17;2.33;;;;;;;22.96;57.80;98380.19;4934390;29;20221;-26
2023/10/05 05:24:36;;;;;;;5.40;2.30;;;;;;;22.94;57.12;98379.25;4943763;29;20259;-26
2023/10/05 05:27:03;;;;;;;4.47;2.83;;;;;;;22.94;55.68;98395.53;4939997;29;20665;-26
2023/10/05 05:29:33;;;;;;;4.30;2.63;;;;;;;22.94;54.79;98395.53;4935428;29;20209;-27
2023/10/05 05:32:19;;;;;;;3.83;2.47;;;;;;;22.94;52.86;98389.50;4940861;28;20320;-27
2023/10/05 05:34:46;;;;;;;2.93;2.47;;;;;;;22.93;52.86;98395.47;4947245;29;20208;-27
2023/10/05 05:37:47;;;;;;;3.53;2.67;;;;;;;22.93;51.74;98405.72;4941669;29;20288;-27
2023/10/05 05:40:12;;;;;;;4.93;2.83;;;;;;;22.92;51.08;98401.41;4945463;28;20212;-26
2023/10/05 05:42:40;;;;;;;4.73;2.90;;;;;;;22.91;50.30;98410.78;4940549;29;20619;-26
2023/10/05 05:45:15;;;;;;;5.27;2.90;;;;;;;22.91;49.82;98409.91;4947607;28;20212;-29
2023/10/05 05:47:43;;;;;;;3.23;2.70;;;;;;;22.90;49.37;98410.72;4941084;29;20200;-27
2023/10/05 05:50:17;;;;;;;3.53;2.83;;;;;;;22.88;48.25;98408.09;4941705;28;20247;-27
2023/10/05 05:52:47;;;;;;;3.20;2.77;;;;;;;22.64;48.65;98365.28;4944811;28;20248;-27
2023/10/05 05:55:17;;;;;;;6.67;3.07;;;;;;;22.86;48.37;98411.44;4939569;28;20295;-27
2023/10/05 05:57:44;;;;;;;3.77;3.10;;;;;;;22.85;48.38;98418.25;4947006;29;20197;-26
2023/10/05 06:00:11;;;;;;;4.30;2.53;;;;;;;22.85;49.45;98409.66;4946258;28;20204;-26
2023/10/05 06:02:41;;;;;;;6.33;2.83;;;;;;;22.85;50.40;98412.22;4938203;29;20213;-26
2023/10/05 06:05:09;;;;;;;5.87;3.00;;;;;;;22.84;51.37;98407.94;4945897;28;20204;-30
2023/10/05 06:07:40;;;;;;;3.03;2.73;;;;;;;22.84;51.98;98397.69;4936114;29;20204;-28
2023/10/05 06:10:14;;;;;;;4.50;2.60;;;;;;;22.83;52.19;98390.81;4946657;28;20577;-26
2023/10/05 06:12:43;;;;;;;2.93;2.50;;;;;;;22.83;52.70;98380.56;4934923;29;20327;-26
2023/10/05 06:15:10;;;;;;;4.17;3.10;;;;;;;22.82;51.94;98384.81;4942126;29;20255;-26
2023/10/05 06:17:38;;;;;;;4.53;2.87;;;;;;;22.81;50.90;98383.06;4951898;29;20686;-26
2023/10/05 06:20:07;;;;;;;6.50;3.07;;;;;;;22.80;50.75;98376.19;4948697;29;20668;-26
2023/10/05 06:22:33;;;;;;;4.37;3.20;;;;;;;22.80;51.77;98376.19;4952764;28;20294;-26
2023/10/05 06:25:00;;;;;;;4.80;2.87;;;;;;;22.80;52.43;98375.31;4949136;29;20216;-37
2023/10/05 06:27:26;;;;;;;4.00;2.97;;;;;;;22.80;53.16;98375.31;4953422;29;20679;-26
2023/10/05 06:29:53;;;;;;;6.60;2.70;;;;;;;22.79;53.75;98382.13;4950764;29;20196;-26
2023/10/05 06:32:20;;;;;;;3.60;2.43;;;;;;;22.80;54.18;98388.13;4954047;28;20248;-26
2023/10/05 06:34:48;;;;;;;19.73;2.87;;;;;;;22.80;54.60;98389.00;4950287;29;20205;-31
2023/10/05 06:37:15;;;;;;;4.43;2.60;;;;;;;22.81;54.85;98392.44;4943604;29;20771;-29
2023/10/05 06:39:41;;;;;;;3.87;2.60;;;;;;;22.81;55.23;98392.44;4950303;29;20671;-29
2023/10/05 06:42:08;;;;;;;3.20;2.40;;;;;;;22.81;55.22;98387.31;4949239;28;20228;-26
2023/10/05 06:44:34;;;;;;;6.27;2.57;;;;;;;22.82;55.30;98384.81;4953589;28;20201;-26
2023/10/05 06:47:01;;;;;;;3.70;2.67;;;;;;;22.83;55.64;98380.56;4946789;29;20209;-26
2023/10/05 06:49:28;;;;;;;5.03;2.53;;;;;;;22.83;55.94;98376.28;4954378;29;20220;-26
2023/10/05 06:51:55;;;;;;;3.30;2.60;;;;;;;22.84;55.97;98374.63;4948649;28;20241;-26
2023/10/05 06:54:22;;;;;;;4.37;2.60;;;;;;;22.85;56.25;98378.91;4949956;29;20315;-26
2023/10/05 06:56:49;;;;;;;5.17;2.80;;;;;;;22.85;56.63;98382.34;4951137;29;20655;-26
2023/10/05 06:59:16;;;;;;;3.17;2.50;;;;;;;22.84;56.80;98383.19;4950189;29;20660;-26
2023/10/05 07:01:43;;;;;;;4.10;2.40;;;;;;;22.85;57.29;98390.06;4952743;28;20224;-26
2023/10/05 07:04:12;;;;;;;3.37;2.50;;;;;;;22.85;57.05;98401.97;4942743;29;20211;-28
2023/10/05 07:06:39;;;;;;;5.67;2.70;;;;;;;22.86;57.00;98403.75;4953644;29;20204;-26
2023/10/05 07:09:05;;;;;;;3.80;2.60;;;;;;;22.86;57.23;98403.75;4947334;29;20205;-26
2023/10/05 07:11:32;;;;;;;4.70;2.43;;;;;;;22.86;57.27;98399.47;4950938;28;20307;-27
2023/10/05 07:13:59;;;;;;;5.03;2.53;;;;;;;22.87;57.46;98402.91;4949037;29;20279;-29
2023/10/05 07:16:26;;;;;;;7.57;2.77;;;;;;;22.87;57.81;98397.78;4942733;29;20668;-28
2023/10/05 07:18:54;;;;;;;3.43;2.30;;;;;;;22.88;57.73;98397.84;4932481;29;20201;-26
2023/10/05 07:21:21;;;;;;;3.13;2.40;;;;;;;22.88;57.88;98394.41;4942508;28;20220;-27
2023/10/05 07:23:47;;;;;;;6.17;2.33;;;;;;;22.89;57.99;98402.16;4945156;29;20200;-26
2023/10/05 07:26:14;;;;;;;3.10;2.23;;;;;;;22.89;58.03;98407.28;4942637;29;20356;-26
2023/10/05 07:28:41;;;;;;;3.83;2.33;;;;;;;22.90;58.09;98410.72;4939769;29;20217;-27
2023/10/05 07:31:09;;;;;;;3.43;2.27;;;;;;;22.90;58.92;98413.28;4942648;29;20224;-26
2023/10/05 07:33:36;;;;;;;5.47;2.37;;;;;;;22.90;58.29;98415.84;4936922;29;20271;-26
2023/10/05 07:36:03;;;;;;;6.20;2.60;;;;;;;22.90;58.39;98405.59;4944120;28;20668;-26
2023/10/05 07:38:30;;;;;;;3.10;2.27;;;;;;;22.89;57.67;98403.88;4944913;28;20591;-26
2023/10/05 07:40:57;;;;;;;8.77;2.80;;;;;;;22.88;54.21;98404.66;4940981;28;20681;-26
2023/10/05 07:43:24;;;;;;;5.13;2.90;;;;;;;22.87;54.26;98405.47;4944201;29;20703;-28
2023/10/05 07:45:50;;;;;;;4.27;2.90;;;;;;;22.87;55.10;98403.81;4941554;29;20579;-26
2023/10/05 07:48:19;;;;;;;4.20;3.00;;;;;;;22.87;55.65;98411.50;4947894;29;20757;-26
2023/10/05 07:50:48;;;;;;;3.67;2.63;;;;;;;22.89;55.92;98420.09;4940349;28;20201;-29
2023/10/05 07:53:16;;;;;;;8.43;2.90;;;;;;;22.88;56.34;98426.06;4942676;29;20221;-30
2023/10/05 07:55:43;;;;;;;6.67;2.73;;;;;;;22.89;56.57;98426.94;4943443;29;20626;-28
2023/10/05 07:58:10;;;;;;;4.73;2.70;;;;;;;22.89;56.81;98414.13;4941002;28;20204;-28
2023/10/05 08:00:36;;;;;;;3.93;2.60;;;;;;;22.89;57.00;98417.53;4945914;29;20208;-29
2023/10/05 08:03:05;;;;;;;5.50;2.67;;;;;;;22.89;57.01;98414.13;4942073;28;20715;-27
2023/10/05 08:05:32;;;;;;;6.37;2.90;;;;;;;22.90;57.24;98413.28;4948506;28;20197;-28
2023/10/05 08:07:59;;;;;;;3.40;2.70;;;;;;;22.89;57.28;98414.97;4940480;29;20695;-26
2023/10/05 08:10:26;;;;;;;4.47;2.40;;;;;;;22.90;57.41;98426.09;4946928;28;20200;-26
2023/10/05 08:12:53;;;;;;;7.17;2.47;;;;;;;22.90;57.66;98423.53;4943171;28;20225;-26
2023/10/05 08:15:20;;;;;;;3.17;2.40;;;;;;;22.90;57.90;98428.66;4940988;28;20212;-26
2023/10/05 08:17:48;;;;;;;4.00;2.50;;;;;;;22.89;57.92;98422.66;4947690;28;20203;-30
2023/10/05 08:20:17;;;;;;;3.57;2.00;;;;;;;22.91;58.26;98427.84;4947833;28;20204;-26
2023/10/05 08:22:50;;;;;;;2.97;2.30;;;;;;;22.90;58.02;98434.69;4948587;28;20711;-27
2023/10/05 08:25:16;;;;;;;4.47;2.50;;;;;;;22.91;58.30;98438.97;4952099;29;20196;-26
2023/10/05 08:27:43;;;;;;;3.53;2.73;;;;;;;22.91;58.85;98446.69;4949974;29;20207;-29
2023/10/05 08:30:11;;;;;;;6.03;2.60;;;;;;;22.91;58.55;98444.13;4939384;29;20236;-26
2023/10/05 08:32:39;;;;;;;3.90;2.43;;;;;;;22.92;58.63;98445.00;4950518;28;20231;-26
2023/10/05 08:35:19;;;;;;;4.83;3.07;;;;;;;22.92;58.78;98442.44;4946902;28;20275;-29
2023/10/05 08:37:56;;;;;;;2.50;2.20;;;;;;;22.92;58.83;98440.72;4951333;28;20203;-27
2023/10/05 08:40:58;;;;;;;2.47;2.23;;;;;;;22.92;58.81;98438.16;4948233;28;20227;-26
2023/10/05 08:43:16;;;;;;;2.33;2.13;;;;;;;22.93;59.01;98441.59;4948132;29;20199;-35
2023/10/05 08:45:50;;;;;;;3.87;2.47;;;;;;;22.93;59.01;98447.63;4944023;29;20232;-32
2023/10/05 08:48:20;;;;;;;3.53;2.23;;;;;;;22.93;59.09;98439.03;4948350;28;20223;-26
2023/10/05 08:50:49;;;;;;;3.03;2.40;;;;;;;22.94;59.15;98436.53;4937061;29;20584;-27
2023/10/05 08:53:21;;;;;;;3.97;2.30;;;;;;;22.94;59.37;98441.66;4952835;28;20727;-28
2023/10/05 08:55:49;;;;;;;2.77;2.40;;;;;;;22.93;59.39;98447.63;4942232;29;20591;-26
2023/10/05 08:58:18;;;;;;;5.83;2.07;;;;;;;22.90;59.51;98450.06;4954037;28;20197;-26
2023/10/05 09:00:45;;;;;;;2.93;2.30;;;;;;;22.94;59.52;98446.78;4944501;29;20204;-33
2023/10/05 09:03:30;;;;;;;2.20;2.00;;;;;;;22.95;59.39;98452.81;4946652;28;20629;-26
2023/10/05 09:08:51;;;;;;;4.17;2.50;;;;;;;22.95;59.67;98452.81;4945743;29;20224;-26
2023/10/05 09:11:37;;;;;;;3.37;2.10;;;;;;;22.95;59.75;98463.91;4943378;29;20745;-26
2023/10/05 09:14:13;;;;;;;2.60;2.07;;;;;;;22.96;59.87;98464.78;4944229;28;20602;-26
2023/10/05 09:16:41;;;;;;;7.27;2.67;;;;;;;22.96;59.92;98463.13;4943447;29;20197;-26
2023/10/05 09:19:13;;;;;;;4.50;2.27;;;;;;;22.96;59.89;98465.69;4952142;28;20197;-26
2023/10/05 09:21:50;;;;;;;4.40;2.10;;;;;;;22.96;59.92;98465.69;4944327;28;20653;-26
2023/10/05 09:24:25;;;;;;;3.43;2.10;;;;;;;22.96;60.11;98463.13;4947331;28;20200;-28
2023/10/05 09:26:56;;;;;;;3.43;2.27;;;;;;;22.82;59.98;98441.19;4942698;29;20209;-26
2023/10/05 09:29:23;;;;;;;3.43;2.37;;;;;;;22.95;60.15;98461.34;4945954;28;20200;-26
2023/10/05 09:31:53;;;;;;;3.83;2.40;;;;;;;22.96;60.37;98467.38;4946131;28;20220;-28
2023/10/05 09:34:44;;;;;;;2.73;2.10;;;;;;;22.96;60.38;98464.78;4945661;29;20213;-26
2023/10/05 09:37:11;;;;;;;3.03;2.40;;;;;;;22.95;60.46;98453.66;4949507;29;20207;-26
2023/10/05 09:39:49;;;;;;;2.77;2.30;;;;;;;22.96;60.34;98460.56;4946013;29;20205;-30
2023/10/05 09:42:17;;;;;;;2.10;1.90;;;;;;;22.95;60.33;98461.34;4942898;29;20801;-26
2023/10/05 09:44:51;;;;;;;3.27;2.20;;;;;;;22.96;60.51;98451.97;4947867;28;20204;-26
2023/10/05 09:47:25;;;;;;;3.00;2.00;;;;;;;22.95;60.47;98443.41;4940429;29;20196;-26
2023/10/05 09:49:56;;;;;;;3.97;2.20;;;;;;;22.95;60.52;98440.00;4950847;28;20622;-26
2023/10/05 09:52:36;;;;;;;3.57;2.33;;;;;;;22.97;60.63;98449.47;4954493;28;20278;-32
2023/10/05 09:55:06;;;;;;;3.40;2.07;;;;;;;22.97;60.63;98446.91;4951359;29;20224;-29
2023/10/05 09:57:41;;;;;;;3.80;2.50;;;;;;;22.98;60.69;98447.78;4951040;28;20283;-30
2023/10/05 10:00:30;;;;;;;4.70;2.20;;;;;;;22.97;60.68;98444.34;4953153;28;20297;-26
2023/10/05 10:03:01;;;;;;;3.37;2.23;;;;;;;22.97;60.80;98435.78;4954121;28;20247;-30
2023/10/05 10:05:38;;;;;;;3.07;2.27;;;;;;;22.97;60.73;98433.22;4952452;28;20263;-26
2023/10/05 10:08:21;;;;;;;2.37;2.00;;;;;;;22.97;60.83;98440.91;4932214;29;20276;-29
2023/10/05 10:11:09;;;;;;;2.90;2.10;;;;;;;22.96;60.90;98437.47;4951268;28;20243;-27
2023/10/05 10:13:39;;;;;;;3.07;2.33;;;;;;;22.96;61.05;98439.16;4943784;28;20679;-27
2023/10/05 10:16:22;;;;;;;4.63;2.50;;;;;;;22.96;60.96;98439.16;4947819;29;20754;-28
2023/10/05 10:19:06;;;;;;;3.53;2.10;;;;;;;22.95;61.07;98433.16;4955003;28;20220;-26
2023/10/05 10:21:35;;;;;;;2.17;1.97;;;;;;;22.96;61.12;98431.47;4947289;28;20225;-26
2023/10/05 10:24:17;;;;;;;2.40;2.10;;;;;;;22.96;61.09;98418.66;4953171;29;20266;-30
2023/10/05 10:26:53;;;;;;;3.57;2.20;;;;;;;22.96;61.19;98422.09;4947955;28;20256;-26
2023/10/05 10:29:22;;;;;;;4.10;2.27;;;;;;;22.96;61.24;98424.66;4949517;29;20204;-27
2023/10/05 10:32:18;;;;;;;2.83;2.40;;;;;;;22.96;61.31;98419.53;4948470;28;20224;-26
2023/10/05 10:34:55;;;;;;;3.67;2.23;;;;;;;22.95;61.32;98410.06;4946959;29;20681;-27
2023/10/05 10:37:44;;;;;;;2.53;1.93;;;;;;;22.96;61.31;98409.28;4935244;29;20196;-26
2023/10/05 10:45:36;;;;;;;3.50;2.07;;;;;;;22.95;61.21;98420.34;4942331;29;20284;-26
2023/10/05 10:48:13;;;;;;;2.60;1.90;;;;;;;22.96;60.95;98421.22;4941272;28;20210;-28
2023/10/05 10:50:40;;;;;;;3.30;2.37;;;;;;;22.94;61.17;98413.47;4939502;29;20722;-26
2023/10/05 10:53:16;;;;;;;3.00;2.10;;;;;;;22.95;61.34;98406.66;4947564;28;20241;-29
2023/10/05 10:55:48;;;;;;;3.10;2.50;;;;;;;22.95;61.38;98402.38;4931614;29;20284;-28
2023/10/05 10:58:21;;;;;;;2.20;2.00;;;;;;;22.96;61.40;98403.28;4942185;29;20288;-26
2023/10/05 11:01:13;;;;;;;2.43;2.10;;;;;;;22.96;61.47;98393.00;4947578;28;20209;-29
2023/10/05 11:03:41;;;;;;;2.47;2.17;;;;;;;22.96;61.46;98393.00;4944779;28;20200;-26
2023/10/05 11:06:09;;;;;;;3.57;1.93;;;;;;;22.96;61.50;98385.31;4946123;29;20614;-26
2023/10/05 11:08:40;;;;;;;3.07;2.10;;;;;;;22.96;61.28;98378.50;4955638;28;20211;-26
2023/10/05 11:11:19;;;;;;;4.53;2.27;;;;;;;22.96;61.24;98375.94;4945079;29;20245;-26
2023/10/05 11:13:54;;;;;;;2.50;1.90;;;;;;;22.97;61.46;98371.69;4927206;29;20268;-31
2023/10/05 11:16:34;;;;;;;2.40;1.90;;;;;;;22.98;61.48;98376.84;4935658;29;20207;-26
2023/10/05 11:19:04;;;;;;;2.77;2.20;;;;;;;22.99;61.88;98373.50;4931398;29;20861;-26
2023/10/05 11:21:48;;;;;;;3.07;2.20;;;;;;;22.99;61.94;98370.06;4939744;28;20300;-26
2023/10/05 11:24:18;;;;;;;4.20;1.90;;;;;;;22.98;62.01;98379.41;4946808;29;20284;-28
2023/10/05 11:29:28;;;;;;;5.43;2.47;;;;;;;22.97;62.13;98370.00;4948560;28;20242;-26
2023/10/05 11:32:03;;;;;;;3.87;2.20;;;;;;;22.91;62.36;98363.75;4940097;28;20233;-26
2023/10/05 11:34:55;;;;;;;6.63;2.30;;;;;;;22.97;62.24;98369.13;4938681;28;20240;-29
2023/10/05 11:37:45;;;;;;;2.40;2.03;;;;;;;22.97;62.19;98370.00;4943503;29;20220;-26
2023/10/05 11:40:23;;;;;;;3.50;2.10;;;;;;;22.97;62.23;98371.69;4947510;28;20580;-26
2023/10/05 11:42:50;;;;;;;5.00;2.03;;;;;;;22.97;62.32;98371.69;4945369;29;20717;-27
2023/10/05 11:45:18;;;;;;;3.00;2.00;;;;;;;22.98;62.35;98371.72;4944209;28;20201;-26
2023/10/05 11:47:52;;;;;;;2.27;2.00;;;;;;;22.98;62.35;98368.31;4942429;29;20204;-26
2023/10/05 11:50:32;;;;;;;3.27;2.10;;;;;;;22.99;62.44;98372.63;4946703;28;20380;-26
2023/10/05 11:53:08;;;;;;;5.03;2.53;;;;;;;22.99;62.01;98372.63;4936327;29;20240;-30
2023/10/05 11:55:35;;;;;;;3.60;2.10;;;;;;;22.99;62.53;98370.06;4945814;29;20774;-31
2023/10/05 11:58:02;;;;;;;3.13;2.33;;;;;;;23.00;62.63;98369.22;4942140;29;20240;-26
2023/10/05 12:00:31;;;;;;;3.97;2.50;;;;;;;22.97;62.61;98364.88;4948190;29;20577;-27
2023/10/05 12:02:58;;;;;;;5.57;2.30;;;;;;;22.99;62.55;98367.50;4943211;29;20236;-27
2023/10/05 12:05:28;;;;;;;4.50;2.47;;;;;;;22.99;62.58;98367.50;4943130;29;20401;-26
2023/10/05 12:07:59;;;;;;;7.57;2.53;;;;;;;23.00;62.66;98366.66;4936537;29;20696;-27
2023/10/05 12:10:26;;;;;;;4.70;2.20;;;;;;;23.00;62.54;98369.22;4936335;29;20698;-26
2023/10/05 12:12:52;;;;;;;4.43;2.20;;;;;;;23.01;62.63;98376.13;4945284;28;20225;-26
2023/10/05 12:15:22;;;;;;;4.03;2.30;;;;;;;23.01;62.61;98376.13;4927956;29;20338;-26
2023/10/05 12:17:49;;;;;;;4.23;2.67;;;;;;;23.01;62.71;98365.88;4942155;29;20232;-26
2023/10/05 12:20:16;;;;;;;6.17;2.50;;;;;;;23.02;62.85;98370.16;4944960;29;20229;-28
2023/10/05 12:22:44;;;;;;;3.70;2.17;;;;;;;23.03;62.86;98374.47;4948082;29;20263;-26
2023/10/05 12:25:14;;;;;;;5.87;2.20;;;;;;;23.03;62.70;98369.34;4944042;29;20287;-29